createdAt,value
2022-11-24T00:03:30.058Z,67.21
2022-11-24T00:08:34.329Z,67.62
2022-11-24T00:13:41.591Z,67.58
2022-11-24T00:18:47.522Z,66.87
2022-11-24T00:23:51.822Z,66.74
2022-11-24T00:28:57.642Z,67.12
2022-11-24T00:34:03.825Z,67.15
2022-11-24T00:39:14.850Z,67.66
2022-11-24T00:44:18.133Z,66.63
2022-11-24T00:49:21.549Z,66.64
2022-11-24T00:54:24.962Z,67.00
2022-11-24T00:59:28.379Z,67.59
2022-11-24T01:04:31.946Z,65.81
2022-11-24T01:09:35.517Z,66.08
2022-11-24T01:14:39.652Z,66.90
2022-11-24T01:19:42.864Z,67.15
2022-11-24T01:24:46.278Z,66.79
2022-11-24T01:29:49.489Z,65.97
2022-11-24T01:34:52.802Z,65.04
2022-11-24T01:39:56.219Z,64.72
2022-11-24T01:45:30.664Z,64.89
2022-11-24T01:50:36.013Z,65.12
2022-11-24T01:55:40.159Z,64.68
2022-11-24T02:00:45.415Z,64.77
2022-11-24T02:05:58.148Z,65.25
2022-11-24T02:11:04.636Z,65.90
2022-11-24T02:16:10.886Z,65.87
2022-11-24T02:21:16.359Z,65.22
2022-11-24T02:26:46.834Z,63.61
2022-11-24T02:31:58.541Z,60.62
2022-11-24T02:37:01.756Z,61.06
2022-11-24T02:42:12.750Z,67.74
2022-11-24T02:47:15.962Z,69.24
2022-11-24T02:52:19.684Z,69.40
2022-11-24T02:57:23.682Z,62.30
2022-11-24T03:02:27.004Z,55.73
2022-11-24T03:07:30.376Z,64.87
2022-11-24T03:12:33.759Z,57.58
2022-11-24T03:17:37.277Z,63.85
2022-11-24T03:22:41.841Z,60.65
2022-11-24T03:27:45.437Z,62.34
2022-11-24T03:32:48.755Z,62.36
2022-11-24T03:37:52.043Z,63.00
2022-11-24T03:42:55.481Z,62.74
2022-11-24T03:47:58.698Z,62.15
2022-11-24T03:53:02.008Z,63.20
2022-11-24T03:58:05.322Z,63.32
2022-11-24T04:03:09.358Z,63.06
2022-11-24T04:08:13.457Z,63.67
2022-11-24T04:13:19.465Z,64.68
2022-11-24T04:18:23.184Z,65.35
2022-11-24T04:23:26.501Z,66.39
2022-11-24T04:28:29.816Z,66.97
2022-11-24T04:33:33.438Z,66.90
2022-11-24T04:39:25.933Z,66.97
2022-11-24T04:44:00.027Z,67.15
2022-11-24T04:49:03.446Z,66.51
2022-11-24T04:54:12.527Z,65.65
2022-11-24T04:59:15.909Z,66.04
2022-11-24T05:04:21.669Z,67.13
2022-11-24T05:09:36.916Z,67.24
2022-11-24T05:14:48.368Z,67.37
2022-11-24T05:19:51.577Z,67.23
2022-11-24T05:24:54.796Z,67.35
2022-11-24T05:29:58.101Z,67.84
2022-11-24T05:35:02.544Z,68.11
2022-11-24T05:40:07.265Z,67.80
2022-11-24T05:45:14.031Z,66.36
2022-11-24T05:50:20.706Z,64.31
2022-11-24T05:55:23.784Z,63.21
2022-11-24T06:00:27.610Z,63.07
2022-11-24T06:05:30.913Z,62.69
2022-11-24T06:10:34.023Z,62.02
2022-11-24T06:15:37.973Z,61.32
2022-11-24T06:20:42.143Z,61.95
2022-11-24T06:25:51.304Z,61.62
2022-11-24T06:30:54.752Z,61.51
2022-11-24T06:36:05.850Z,61.89
2022-11-24T06:41:13.286Z,62.45
2022-11-24T06:46:16.330Z,63.02
2022-11-24T06:51:20.181Z,63.54
2022-11-24T06:56:23.160Z,62.95
2022-11-24T07:01:28.420Z,62.37
2022-11-24T07:06:31.569Z,61.94
2022-11-24T07:11:35.358Z,61.57
2022-11-24T07:16:39.657Z,61.64
2022-11-24T07:21:42.633Z,61.21
2022-11-24T07:26:45.946Z,60.95
2022-11-24T07:31:49.118Z,61.62
2022-11-24T07:36:52.372Z,62.66
2022-11-24T07:41:55.580Z,62.37
2022-11-24T07:46:58.598Z,61.23
2022-11-24T07:52:02.008Z,60.24
2022-11-24T07:57:05.221Z,60.26
2022-11-24T08:02:12.402Z,59.37
2022-11-24T08:07:15.413Z,63.29
2022-11-24T08:12:22.702Z,60.94
2022-11-24T08:17:25.739Z,63.27
2022-11-24T08:22:28.847Z,64.15
2022-11-24T08:27:31.960Z,65.23
2022-11-24T08:32:35.165Z,64.67
2022-11-24T08:37:38.277Z,63.22
2022-11-24T08:42:41.286Z,64.63
2022-11-24T08:47:44.393Z,64.94
2022-11-24T08:52:47.605Z,65.79
2022-11-24T08:57:50.715Z,68.73
2022-11-24T09:02:57.891Z,68.50
2022-11-24T09:08:01.128Z,67.76
2022-11-24T09:13:04.650Z,67.38
2022-11-24T09:18:07.758Z,65.96
2022-11-24T09:23:11.476Z,65.04
2022-11-24T09:28:14.584Z,64.89
2022-11-24T09:33:17.692Z,64.35
2022-11-24T09:38:20.813Z,65.04
2022-11-24T09:43:34.050Z,65.88
2022-11-24T09:48:41.666Z,65.70
2022-11-24T09:53:53.682Z,65.69
2022-11-24T09:59:03.246Z,64.16
2022-11-24T10:04:16.621Z,64.31
2022-11-24T10:09:45.833Z,64.98
2022-11-24T10:15:07.360Z,64.72
2022-11-24T10:20:27.355Z,63.39
2022-11-24T10:25:59.152Z,63.68
2022-11-24T10:31:27.712Z,62.62
2022-11-24T10:36:51.211Z,64.44
2022-11-24T10:42:06.013Z,63.94
2022-11-24T10:47:28.244Z,63.77
2022-11-24T10:52:40.389Z,64.33
2022-11-24T10:57:45.226Z,64.69
2022-11-24T11:02:50.698Z,64.14
2022-11-24T11:08:20.050Z,64.93
2022-11-24T11:13:30.874Z,65.47
2022-11-24T11:18:34.232Z,65.78
2022-11-24T11:23:38.160Z,65.88
2022-11-24T11:28:41.273Z,65.93
2022-11-24T11:34:04.145Z,66.20
2022-11-24T11:39:35.070Z,66.07
2022-11-24T11:44:49.008Z,66.11
2022-11-24T11:49:53.120Z,65.90
2022-11-24T11:55:22.316Z,65.64
2022-11-24T12:00:25.425Z,65.80
2022-11-24T12:05:46.559Z,65.76
2022-11-24T12:11:10.087Z,65.54
2022-11-24T12:16:41.823Z,65.19
2022-11-24T12:22:03.467Z,65.02
2022-11-24T12:27:23.289Z,64.87
2022-11-24T12:33:03.957Z,65.32
2022-11-24T12:38:27.772Z,65.37
2022-11-24T12:43:35.781Z,65.31
2022-11-24T12:48:38.677Z,65.40
2022-11-24T12:53:43.478Z,65.41
2022-11-24T12:59:06.606Z,65.91
2022-11-24T13:04:39.205Z,65.86
2022-11-24T13:10:26.365Z,65.68
2022-11-24T13:16:20.598Z,66.53
2022-11-24T13:21:51.870Z,66.71
2022-11-24T13:27:24.631Z,67.25
2022-11-24T13:32:33.675Z,67.53
2022-11-24T13:37:36.788Z,67.72
2022-11-24T13:42:54.845Z,67.35
2022-11-24T13:47:58.058Z,67.51
2022-11-24T13:53:18.060Z,67.40
2022-11-24T13:58:27.621Z,67.03
2022-11-24T14:03:55.478Z,67.38
2022-11-24T14:09:42.651Z,67.87
2022-11-24T14:14:51.456Z,67.85
2022-11-24T14:19:56.970Z,68.31
2022-11-24T14:25:02.412Z,68.23
2022-11-24T14:30:06.464Z,68.09
2022-11-24T14:35:43.667Z,67.73
2022-11-24T14:40:50.256Z,68.52
2022-11-24T14:45:57.298Z,68.83
2022-11-24T14:51:14.678Z,69.72
2022-11-24T14:56:26.411Z,69.79
2022-11-24T15:01:29.847Z,69.60
2022-11-24T15:06:33.146Z,70.08
2022-11-24T15:11:36.356Z,69.79
2022-11-24T15:16:40.196Z,69.56
2022-11-24T15:21:43.492Z,69.41
2022-11-24T15:26:46.905Z,69.16
2022-11-24T15:31:52.839Z,68.90
2022-11-24T15:36:56.607Z,68.16
2022-11-24T15:41:59.820Z,67.78
2022-11-24T15:47:03.052Z,67.78
2022-11-24T15:52:07.060Z,67.52
2022-11-24T15:57:11.066Z,67.73
2022-11-24T16:02:14.201Z,67.58
2022-11-24T16:07:17.446Z,67.48
2022-11-24T16:12:20.622Z,66.86
2022-11-24T16:17:23.726Z,66.93
2022-11-24T16:22:26.732Z,67.41
2022-11-24T16:27:30.045Z,67.64
2022-11-24T16:32:33.056Z,68.15
2022-11-24T16:37:36.474Z,69.07
2022-11-24T16:42:39.696Z,69.22
2022-11-24T16:47:43.196Z,69.51
2022-11-24T16:52:46.316Z,69.03
2022-11-24T16:57:49.423Z,68.60
2022-11-24T17:02:52.472Z,68.06
2022-11-24T17:07:55.759Z,67.89
2022-11-24T17:12:59.068Z,68.23
2022-11-24T17:18:23.474Z,67.95
2022-11-24T17:23:26.247Z,67.79
2022-11-24T17:28:29.950Z,67.46
2022-11-24T17:33:33.096Z,67.79
2022-11-24T17:38:37.091Z,68.22
2022-11-24T17:43:40.234Z,68.27
2022-11-24T17:48:43.440Z,68.21
2022-11-24T17:53:49.565Z,67.77
2022-11-24T17:58:57.955Z,67.60
2022-11-24T18:04:01.480Z,67.36
2022-11-24T18:09:04.584Z,67.53
2022-11-24T18:14:07.790Z,67.23
2022-11-24T18:19:11.510Z,67.14
2022-11-24T18:24:17.488Z,66.95
2022-11-24T18:29:24.396Z,66.28
2022-11-24T18:34:27.601Z,66.38
2022-11-24T18:39:30.707Z,66.73
2022-11-24T18:44:34.406Z,66.64
2022-11-24T18:49:37.649Z,67.25
2022-11-24T18:54:40.868Z,67.24
2022-11-24T18:59:44.070Z,67.19
2022-11-24T19:04:47.281Z,67.20
2022-11-24T19:09:50.384Z,67.14
2022-11-24T19:14:54.725Z,67.18
2022-11-24T19:19:57.838Z,67.20
2022-11-24T19:25:00.949Z,66.80
2022-11-24T19:30:04.526Z,66.72
2022-11-24T19:35:07.948Z,66.96
2022-11-24T19:40:11.521Z,67.11
2022-11-24T19:45:14.619Z,66.80
2022-11-24T19:50:18.635Z,66.94
2022-11-24T19:55:21.845Z,67.14
2022-11-24T20:00:29.107Z,67.06
2022-11-24T20:05:34.886Z,67.09
2022-11-24T20:10:42.485Z,66.80
2022-11-24T20:15:45.646Z,67.06
2022-11-24T20:20:48.672Z,67.53
2022-11-24T20:25:51.873Z,67.80
2022-11-24T20:30:54.974Z,68.57
2022-11-24T20:36:13.136Z,69.09
2022-11-24T20:41:17.984Z,69.50
2022-11-24T20:46:27.238Z,70.05
2022-11-24T20:51:33.322Z,70.29
2022-11-24T20:56:39.869Z,70.65
2022-11-24T21:01:45.585Z,71.16
2022-11-24T21:06:49.404Z,71.76
2022-11-24T21:11:52.573Z,61.78
2022-11-24T21:16:55.652Z,60.97
2022-11-24T21:21:58.730Z,66.23
2022-11-24T21:27:01.742Z,66.96
2022-11-24T21:32:05.483Z,67.46
2022-11-24T21:37:08.569Z,67.82
2022-11-24T21:42:11.783Z,68.07
2022-11-24T21:47:14.888Z,68.10
2022-11-24T21:52:17.999Z,68.20
2022-11-24T21:57:23.255Z,67.49
2022-11-24T22:02:26.345Z,67.20
2022-11-24T22:07:33.032Z,67.09
2022-11-24T22:12:36.061Z,66.98
2022-11-24T22:17:39.123Z,67.15
2022-11-24T22:22:42.278Z,67.54
2022-11-24T22:27:45.297Z,67.18
2022-11-24T22:32:48.396Z,67.45
2022-11-24T22:37:51.900Z,67.77
2022-11-24T22:42:54.921Z,67.58
2022-11-24T22:47:58.098Z,67.74
2022-11-24T22:53:01.340Z,67.89
2022-11-24T22:58:04.354Z,68.14
2022-11-24T23:03:07.386Z,68.51
2022-11-24T23:08:10.564Z,68.96
2022-11-24T23:13:13.775Z,69.33
2022-11-24T23:18:16.785Z,69.29
2022-11-24T23:23:19.898Z,68.86
2022-11-24T23:28:23.000Z,68.52
2022-11-24T23:33:26.107Z,68.56
2022-11-24T23:38:32.549Z,68.45
2022-11-24T23:43:35.816Z,68.07
2022-11-24T23:48:39.810Z,68.07
2022-11-24T23:53:44.176Z,67.93
2022-11-24T23:58:48.121Z,67.76
